createdAt,value
2017-12-11T00:01:38.272Z,1.50
2017-12-11T00:04:05.360Z,0.70
2017-12-11T00:06:31.656Z,2.10
2017-12-11T00:08:59.729Z,5.67
2017-12-11T00:11:26.801Z,3.03
2017-12-11T00:13:53.177Z,0.93
2017-12-11T00:16:19.535Z,2.40
2017-12-11T00:18:46.676Z,3.90
2017-12-11T00:21:12.990Z,1.23
2017-12-11T00:23:39.336Z,7.60
2017-12-11T00:26:05.666Z,1.00
2017-12-11T00:28:31.963Z,0.90
2017-12-11T00:30:58.294Z,3.30
2017-12-11T00:33:24.620Z,1.20
2017-12-11T00:35:50.944Z,1.50
2017-12-11T00:38:17.314Z,2.10
2017-12-11T00:40:43.613Z,2.53
2017-12-11T00:43:10.049Z,0.90
2017-12-11T00:45:36.408Z,2.30
2017-12-11T00:48:02.735Z,1.73
2017-12-11T00:50:29.101Z,2.03
2017-12-11T00:52:56.182Z,8.20
2017-12-11T00:55:22.553Z,2.30
2017-12-11T00:57:48.840Z,2.30
2017-12-11T01:00:15.211Z,3.80
2017-12-11T01:02:41.509Z,1.63
2017-12-11T01:05:07.842Z,2.10
2017-12-11T01:07:34.171Z,0.93
2017-12-11T01:10:00.543Z,2.17
2017-12-11T01:12:26.869Z,2.70
2017-12-11T01:14:53.235Z,5.97
2017-12-11T01:17:20.304Z,1.50
2017-12-11T01:19:46.612Z,1.10
2017-12-11T01:22:13.664Z,2.63
2017-12-11T01:24:40.682Z,1.77
2017-12-11T01:27:06.981Z,0.93
2017-12-11T01:29:33.264Z,1.77
2017-12-11T01:32:00.311Z,1.60
2017-12-11T01:34:27.410Z,5.23
2017-12-11T01:36:53.724Z,3.27
2017-12-11T01:39:20.029Z,6.90
2017-12-11T01:41:46.314Z,1.23
2017-12-11T01:44:12.663Z,2.60
2017-12-11T01:46:38.947Z,2.90
2017-12-11T01:49:05.257Z,1.13
2017-12-11T01:51:31.562Z,0.80
2017-12-11T01:53:57.839Z,2.10
2017-12-11T01:56:24.167Z,1.97
2017-12-11T01:58:50.505Z,5.83
2017-12-11T02:01:16.803Z,1.30
2017-12-11T02:03:43.847Z,3.37
2017-12-11T02:06:10.359Z,2.83
2017-12-11T02:08:36.621Z,0.70
2017-12-11T02:11:03.688Z,0.70
2017-12-11T02:13:30.038Z,0.73
2017-12-11T02:15:56.394Z,0.70
2017-12-11T02:18:22.718Z,0.70
2017-12-11T02:20:49.030Z,0.40
2017-12-11T02:23:15.371Z,0.67
2017-12-11T02:25:41.650Z,0.70
2017-12-11T02:28:08.790Z,0.40
2017-12-11T02:30:35.842Z,1.67
2017-12-11T02:33:02.920Z,0.80
2017-12-11T02:35:29.226Z,0.60
2017-12-11T02:37:56.257Z,0.87
2017-12-11T02:40:22.593Z,1.03
2017-12-11T02:42:49.637Z,0.50
2017-12-11T02:45:15.938Z,1.10
2017-12-11T02:47:42.243Z,0.60
2017-12-11T02:50:08.544Z,1.27
2017-12-11T02:52:35.555Z,0.50
2017-12-11T02:55:01.876Z,1.57
2017-12-11T02:57:28.177Z,1.33
2017-12-11T02:59:54.484Z,0.80
2017-12-11T03:02:21.588Z,1.83
2017-12-11T03:04:47.945Z,0.97
2017-12-11T03:07:14.205Z,0.50
2017-12-11T03:09:40.515Z,0.50
2017-12-11T03:12:07.582Z,1.07
2017-12-11T03:14:34.024Z,1.00
2017-12-11T03:17:00.331Z,1.10
2017-12-11T03:19:27.436Z,0.67
2017-12-11T03:21:53.729Z,3.40
2017-12-11T03:24:20.788Z,1.13
2017-12-11T03:26:47.088Z,0.90
2017-12-11T03:29:14.170Z,0.60
2017-12-11T03:31:40.498Z,4.00
2017-12-11T03:34:06.813Z,0.50
2017-12-11T03:36:33.838Z,1.03
2017-12-11T03:39:00.132Z,0.93
2017-12-11T03:41:33.428Z,0.70
2017-12-11T03:43:59.720Z,0.40
2017-12-11T03:46:26.756Z,0.50
2017-12-11T03:48:53.890Z,0.70
2017-12-11T03:51:20.155Z,1.23
2017-12-11T03:53:46.487Z,0.63
2017-12-11T03:56:12.849Z,0.40
2017-12-11T03:58:39.108Z,1.63
2017-12-11T04:01:05.428Z,0.60
2017-12-11T04:03:31.748Z,1.13
2017-12-11T04:05:58.057Z,0.87
2017-12-11T04:08:24.320Z,1.17
2017-12-11T04:10:50.656Z,0.83
2017-12-11T04:13:16.990Z,0.50
2017-12-11T04:15:43.280Z,1.70
2017-12-11T04:18:09.620Z,0.60
2017-12-11T04:20:35.945Z,1.17
2017-12-11T04:23:02.285Z,1.03
2017-12-11T04:25:29.291Z,0.90
2017-12-11T04:27:56.373Z,0.73
2017-12-11T04:30:22.739Z,2.33
2017-12-11T04:32:49.093Z,0.87
2017-12-11T04:35:15.407Z,0.80
2017-12-11T04:37:41.800Z,1.23
2017-12-11T04:40:08.233Z,2.00
2017-12-11T04:42:34.618Z,1.23
2017-12-11T04:45:01.709Z,1.47
2017-12-11T04:47:28.087Z,1.17
2017-12-11T04:49:54.455Z,1.87
2017-12-11T04:52:20.816Z,0.70
2017-12-11T04:54:47.116Z,1.63
2017-12-11T04:57:14.234Z,0.60
2017-12-11T04:59:40.654Z,0.60
2017-12-11T05:02:06.996Z,0.40
2017-12-11T05:04:33.281Z,1.07
2017-12-11T05:06:59.672Z,0.87
2017-12-11T05:09:25.998Z,0.40
2017-12-11T05:11:53.072Z,1.33
2017-12-11T05:14:19.426Z,0.60
2017-12-11T05:16:45.768Z,0.40
2017-12-11T05:19:12.064Z,0.50
2017-12-11T05:21:38.400Z,0.47
2017-12-11T05:24:04.812Z,0.50
2017-12-11T05:26:31.903Z,0.67
2017-12-11T05:28:58.287Z,0.60
2017-12-11T05:31:24.616Z,0.53
2017-12-11T05:33:50.893Z,0.73
2017-12-11T05:36:17.259Z,0.50
2017-12-11T05:38:43.603Z,1.23
2017-12-11T05:41:10.061Z,2.20
2017-12-11T05:43:36.421Z,0.50
2017-12-11T05:46:03.032Z,0.50
2017-12-11T05:48:30.086Z,0.80
2017-12-11T05:50:56.429Z,0.77
2017-12-11T05:53:22.721Z,1.00
2017-12-11T05:55:49.764Z,0.70
2017-12-11T05:58:16.130Z,0.60
2017-12-11T06:00:42.481Z,0.80
2017-12-11T06:03:08.861Z,2.70
2017-12-11T06:05:35.188Z,1.10
2017-12-11T06:08:01.560Z,1.60
2017-12-11T06:10:27.896Z,0.60
2017-12-11T06:12:54.296Z,0.87
2017-12-11T06:15:20.586Z,0.60
2017-12-11T06:17:46.924Z,0.40
2017-12-11T06:20:13.298Z,0.90
2017-12-11T06:22:40.398Z,3.40
2017-12-11T06:25:06.762Z,0.63
2017-12-11T06:27:33.059Z,0.50
2017-12-11T06:29:59.402Z,0.67
2017-12-11T06:32:25.716Z,0.63
2017-12-11T06:34:52.054Z,1.63
2017-12-11T06:37:18.438Z,0.70
2017-12-11T06:39:45.500Z,0.67
2017-12-11T06:42:11.825Z,1.23
2017-12-11T06:44:38.853Z,0.80
2017-12-11T06:47:05.156Z,0.60
2017-12-11T06:49:31.505Z,0.80
2017-12-11T06:51:57.785Z,0.70
2017-12-11T06:54:24.111Z,2.00
2017-12-11T06:56:50.445Z,1.03
2017-12-11T06:59:16.842Z,1.13
2017-12-11T07:01:43.942Z,0.77
2017-12-11T07:04:10.350Z,0.90
2017-12-11T07:06:37.452Z,1.23
2017-12-11T07:09:03.726Z,1.33
2017-12-11T07:11:30.795Z,1.23
2017-12-11T07:13:57.174Z,1.53
2017-12-11T07:16:23.475Z,4.63
2017-12-11T07:18:49.877Z,1.23
2017-12-11T07:21:16.269Z,1.47
2017-12-11T07:23:42.578Z,2.00
2017-12-11T07:26:08.900Z,2.30
2017-12-11T07:28:35.155Z,3.87
2017-12-11T07:31:01.433Z,1.83
2017-12-11T07:33:27.696Z,1.80
2017-12-11T07:35:54.732Z,6.10
2017-12-11T07:38:21.155Z,6.23
2017-12-11T07:40:47.521Z,4.63
2017-12-11T07:43:13.789Z,6.47
2017-12-11T07:45:40.055Z,4.33
2017-12-11T07:48:06.343Z,16.00
2017-12-11T07:50:33.401Z,8.13
2017-12-11T07:53:00.424Z,5.93
2017-12-11T07:55:26.801Z,7.90
2017-12-11T07:57:53.100Z,3.93
2017-12-11T08:00:19.404Z,6.40
2017-12-11T08:02:45.679Z,2.97
2017-12-11T08:05:12.760Z,10.07
2017-12-11T08:07:39.030Z,4.23
2017-12-11T08:10:06.094Z,3.97
2017-12-11T08:12:33.134Z,8.50
2017-12-11T08:15:00.236Z,5.27
2017-12-11T08:17:26.552Z,5.33
2017-12-11T08:19:52.840Z,6.03
2017-12-11T08:22:19.876Z,3.47
2017-12-11T08:24:46.156Z,13.23
2017-12-11T08:27:12.445Z,2.73
2017-12-11T08:29:38.713Z,15.33
2017-12-11T08:32:05.032Z,3.33
2017-12-11T08:34:32.055Z,3.43
2017-12-11T08:36:58.369Z,4.73
2017-12-11T08:39:24.675Z,9.13
2017-12-11T08:41:51.026Z,4.70
2017-12-11T08:44:17.377Z,7.37
2017-12-11T08:46:43.710Z,5.20
2017-12-11T08:49:10.763Z,7.27
2017-12-11T08:51:37.773Z,2.97
2017-12-11T08:54:04.087Z,8.70
2017-12-11T08:56:30.426Z,5.30
2017-12-11T08:58:56.723Z,4.10
2017-12-11T09:01:22.977Z,3.50
2017-12-11T09:03:49.248Z,3.90
2017-12-11T09:06:15.667Z,5.20
2017-12-11T09:08:41.954Z,4.03
2017-12-11T09:11:08.282Z,3.00
2017-12-11T09:13:34.636Z,2.60
2017-12-11T09:16:00.968Z,4.93
2017-12-11T09:18:27.358Z,2.83
2017-12-11T09:20:53.684Z,4.93
2017-12-11T09:23:19.982Z,5.80
2017-12-11T09:25:46.300Z,7.20
2017-12-11T09:28:12.590Z,5.37
2017-12-11T09:30:39.609Z,2.50
2017-12-11T09:33:05.901Z,3.60
2017-12-11T09:35:32.189Z,3.30
2017-12-11T09:37:59.211Z,4.33
2017-12-11T09:40:25.503Z,3.00
2017-12-11T09:42:51.837Z,2.63
2017-12-11T09:45:18.145Z,2.63
2017-12-11T09:47:44.538Z,3.80
2017-12-11T09:50:10.845Z,2.20
2017-12-11T09:52:37.167Z,2.77
2017-12-11T09:55:03.477Z,1.90
2017-12-11T09:57:29.774Z,3.90
2017-12-11T09:59:56.135Z,7.57
2017-12-11T10:02:22.600Z,3.30
2017-12-11T10:04:48.935Z,3.40
2017-12-11T10:07:15.275Z,2.27
2017-12-11T10:09:41.606Z,3.90
2017-12-11T10:12:08.716Z,5.33
2017-12-11T10:14:35.046Z,5.33
2017-12-11T10:17:01.490Z,5.10
2017-12-11T10:19:27.748Z,3.50
2017-12-11T10:21:54.411Z,3.90
2017-12-11T10:24:20.715Z,2.13
2017-12-11T10:26:47.004Z,12.13
2017-12-11T10:29:14.049Z,3.30
2017-12-11T10:31:40.417Z,3.40
2017-12-11T10:34:06.796Z,4.60
2017-12-11T10:36:33.874Z,2.30
2017-12-11T10:39:00.333Z,2.93
2017-12-11T10:41:26.655Z,3.93
2017-12-11T10:43:52.949Z,1.87
2017-12-11T10:46:20.006Z,1.67
2017-12-11T10:48:47.027Z,0.83
2017-12-11T10:51:13.382Z,1.20
2017-12-11T10:53:40.422Z,4.20
2017-12-11T10:56:07.474Z,2.57
2017-12-11T10:58:34.580Z,2.77
2017-12-11T11:01:00.880Z,2.40
2017-12-11T11:03:27.209Z,2.73
2017-12-11T11:05:53.552Z,4.10
2017-12-11T11:08:19.886Z,4.33
2017-12-11T11:10:46.214Z,3.07
2017-12-11T11:13:12.584Z,5.27
2017-12-11T11:15:38.869Z,2.97
2017-12-11T11:18:05.158Z,2.70
2017-12-11T11:20:32.240Z,2.50
2017-12-11T11:22:58.542Z,4.80
2017-12-11T11:25:25.685Z,3.40
2017-12-11T11:27:51.961Z,9.00
2017-12-11T11:30:18.276Z,5.13
2017-12-11T11:32:44.601Z,5.00
2017-12-11T11:35:11.697Z,6.80
2017-12-11T11:40:04.298Z,6.17
2017-12-11T11:42:31.367Z,5.43
2017-12-11T11:44:57.727Z,7.00
2017-12-11T11:47:24.111Z,3.60
2017-12-11T11:49:51.148Z,4.00
2017-12-11T11:52:17.467Z,5.03
2017-12-11T11:54:43.791Z,2.77
2017-12-11T11:57:10.105Z,6.77
2017-12-11T11:59:36.530Z,2.33
2017-12-11T12:02:02.852Z,2.67
2017-12-11T12:04:29.130Z,6.27
2017-12-11T12:06:55.492Z,3.83
2017-12-11T12:09:21.870Z,15.93
2017-12-11T12:11:48.210Z,6.43
2017-12-11T12:14:15.376Z,4.37
2017-12-11T12:16:41.658Z,5.03
2017-12-11T12:19:07.988Z,2.57
2017-12-11T12:21:34.310Z,9.83
2017-12-11T12:24:00.616Z,3.93
2017-12-11T12:26:27.773Z,4.97
2017-12-11T12:28:54.937Z,5.40
2017-12-11T12:31:21.259Z,4.80
2017-12-11T12:33:48.375Z,4.30
2017-12-11T12:36:14.683Z,3.60
2017-12-11T12:38:40.977Z,3.43
2017-12-11T12:41:07.309Z,4.90
2017-12-11T12:43:33.663Z,5.70
2017-12-11T12:45:59.996Z,5.73
2017-12-11T12:48:26.383Z,5.90
2017-12-11T12:50:53.487Z,8.07
2017-12-11T12:53:19.781Z,5.13
2017-12-11T12:55:46.073Z,6.20
2017-12-11T12:58:12.397Z,5.23
2017-12-11T13:00:38.706Z,7.43
2017-12-11T13:03:05.004Z,5.67
2017-12-11T13:05:31.368Z,6.50
2017-12-11T13:07:57.772Z,6.00
2017-12-11T13:10:24.130Z,6.23
2017-12-11T13:12:50.462Z,5.00
2017-12-11T13:15:16.764Z,5.93
2017-12-11T13:17:43.060Z,6.57
2017-12-11T13:20:09.390Z,6.87
2017-12-11T13:22:35.737Z,8.40
2017-12-11T13:25:02.877Z,5.00
2017-12-11T13:27:29.197Z,7.80
2017-12-11T13:29:55.568Z,9.10
2017-12-11T13:32:21.929Z,9.10
2017-12-11T13:34:48.279Z,6.50
2017-12-11T13:37:14.698Z,6.63
2017-12-11T13:39:41.007Z,5.97
2017-12-11T13:42:07.328Z,6.50
2017-12-11T13:44:33.771Z,12.40
2017-12-11T13:47:00.023Z,16.17
2017-12-11T13:49:26.499Z,9.07
2017-12-11T13:51:52.879Z,6.43
2017-12-11T13:54:19.197Z,7.40
2017-12-11T13:56:45.609Z,6.73
2017-12-11T13:59:12.667Z,7.53
2017-12-11T14:01:38.959Z,8.20
2017-12-11T14:04:05.244Z,7.83
2017-12-11T14:06:31.535Z,5.80
2017-12-11T14:08:57.846Z,8.20
2017-12-11T14:11:24.134Z,6.53
2017-12-11T14:13:50.449Z,7.17
2017-12-11T14:16:17.559Z,6.57
2017-12-11T14:18:44.600Z,6.37
2017-12-11T14:21:10.999Z,7.63
2017-12-11T14:23:37.280Z,6.23
2017-12-11T14:26:04.339Z,9.40
2017-12-11T14:28:31.432Z,9.57
2017-12-11T14:30:57.791Z,6.27
2017-12-11T14:33:24.153Z,8.13
2017-12-11T14:35:50.454Z,8.83
2017-12-11T14:38:17.541Z,8.80
2017-12-11T14:40:44.583Z,12.47
2017-12-11T14:43:11.622Z,6.30
2017-12-11T14:45:37.953Z,7.27
2017-12-11T14:48:05.045Z,9.73
2017-12-11T14:50:31.371Z,9.43
2017-12-11T14:52:57.695Z,4.90
2017-12-11T14:55:24.047Z,6.77
2017-12-11T14:57:50.376Z,7.10
2017-12-11T15:00:16.712Z,6.63
2017-12-11T15:02:43.025Z,9.47
2017-12-11T15:05:09.418Z,8.83
2017-12-11T15:07:35.786Z,9.33
2017-12-11T15:10:02.148Z,7.23
2017-12-11T15:12:28.485Z,8.20
2017-12-11T15:14:54.780Z,8.33
2017-12-11T15:17:21.136Z,14.77
2017-12-11T15:19:47.510Z,6.97
2017-12-11T15:22:13.836Z,6.20
2017-12-11T15:24:40.955Z,9.40
2017-12-11T15:27:07.305Z,6.70
2017-12-11T15:29:33.644Z,10.47
2017-12-11T15:31:59.991Z,8.20
2017-12-11T15:34:27.068Z,9.37
2017-12-11T15:36:53.399Z,7.20
2017-12-11T15:39:19.743Z,7.10
2017-12-11T15:41:46.099Z,7.27
2017-12-11T15:44:12.451Z,7.57
2017-12-11T15:46:38.843Z,7.00
2017-12-11T15:49:05.245Z,9.90
2017-12-11T15:51:31.535Z,8.60
2017-12-11T15:53:57.917Z,10.17
2017-12-11T15:56:24.277Z,10.07
2017-12-11T15:58:50.741Z,6.93
2017-12-11T16:01:17.119Z,9.90
2017-12-11T16:03:43.480Z,7.67
2017-12-11T16:06:09.775Z,8.00
2017-12-11T16:08:36.860Z,6.77
2017-12-11T16:11:03.190Z,6.27
2017-12-11T16:13:29.580Z,10.20
2017-12-11T16:15:55.899Z,8.20
2017-12-11T16:18:22.973Z,7.43
2017-12-11T16:20:49.362Z,6.43
2017-12-11T16:23:15.710Z,7.27
2017-12-11T16:25:42.784Z,14.27
2017-12-11T16:28:09.120Z,10.33
2017-12-11T16:30:35.454Z,10.00
2017-12-11T16:33:01.823Z,9.37
2017-12-11T16:35:28.260Z,8.17
2017-12-11T16:37:54.611Z,7.40
2017-12-11T16:40:21.053Z,7.67
2017-12-11T16:42:47.725Z,10.17
2017-12-11T16:45:14.120Z,9.10
2017-12-11T16:47:47.507Z,8.40
2017-12-11T16:50:13.912Z,11.17
2017-12-11T16:52:40.230Z,7.67
2017-12-11T16:55:06.562Z,7.53
2017-12-11T16:57:32.978Z,7.60
2017-12-11T16:59:59.387Z,9.30
2017-12-11T17:02:26.583Z,7.10
2017-12-11T17:04:52.865Z,8.97
2017-12-11T17:07:19.188Z,9.70
2017-12-11T17:09:45.529Z,5.73
2017-12-11T17:12:12.589Z,7.80
2017-12-11T17:14:39.770Z,6.50
2017-12-11T17:17:06.111Z,7.03
2017-12-11T17:19:32.415Z,8.97
2017-12-11T17:21:58.759Z,10.23
2017-12-11T17:24:25.128Z,10.77
2017-12-11T17:26:51.477Z,9.90
2017-12-11T17:29:17.817Z,7.67
2017-12-11T17:31:45.025Z,7.33
2017-12-11T17:34:11.764Z,6.10
2017-12-11T17:36:38.141Z,6.00
2017-12-11T17:39:11.564Z,7.47
2017-12-11T17:41:37.833Z,6.70
2017-12-11T17:44:04.197Z,9.40
2017-12-11T17:46:31.336Z,7.10
2017-12-11T17:48:57.703Z,8.03
2017-12-11T17:51:24.004Z,4.93
2017-12-11T17:53:50.331Z,6.97
2017-12-11T17:56:16.642Z,7.33
2017-12-11T17:58:46.873Z,5.67
2017-12-11T18:01:13.177Z,6.90
2017-12-11T18:03:39.504Z,6.63
2017-12-11T18:06:06.722Z,5.13
2017-12-11T18:08:33.817Z,8.17
2017-12-11T18:11:00.151Z,5.73
2017-12-11T18:13:26.546Z,6.47
2017-12-11T18:15:52.925Z,5.10
2017-12-11T18:18:19.240Z,5.60
2017-12-11T18:20:45.582Z,6.43
2017-12-11T18:23:11.903Z,6.77
2017-12-11T18:25:38.261Z,7.13
2017-12-11T18:28:04.767Z,5.97
2017-12-11T18:30:31.107Z,7.40
2017-12-11T18:32:57.465Z,9.50
2017-12-11T18:35:23.771Z,6.53
2017-12-11T18:37:50.153Z,8.30
2017-12-11T18:40:17.260Z,9.87
2017-12-11T18:42:43.707Z,6.27
2017-12-11T18:45:10.122Z,6.47
2017-12-11T18:47:36.448Z,9.03
2017-12-11T18:50:02.816Z,7.03
2017-12-11T18:52:29.993Z,6.33
2017-12-11T18:54:56.454Z,7.23
2017-12-11T18:57:22.854Z,8.40
2017-12-11T18:59:49.924Z,5.93
2017-12-11T19:02:16.278Z,6.97
2017-12-11T19:04:42.650Z,9.20
2017-12-11T19:07:09.008Z,8.63
2017-12-11T19:09:36.311Z,6.63
2017-12-11T19:12:02.669Z,6.63
2017-12-11T19:14:29.824Z,7.53
2017-12-11T19:16:56.982Z,6.27
2017-12-11T19:19:24.052Z,7.20
2017-12-11T19:21:50.503Z,8.27
2017-12-11T19:24:16.829Z,8.10
2017-12-11T19:26:43.287Z,9.73
2017-12-11T19:29:09.707Z,12.57
2017-12-11T19:31:36.077Z,11.30
2017-12-11T19:34:02.489Z,13.40
2017-12-11T19:36:28.888Z,8.80
2017-12-11T19:38:55.228Z,10.33
2017-12-11T19:41:21.561Z,8.40
2017-12-11T19:43:48.050Z,9.90
2017-12-11T19:46:14.400Z,11.57
2017-12-11T19:48:41.558Z,12.40
2017-12-11T19:51:07.938Z,12.03
2017-12-11T19:53:34.393Z,8.87
2017-12-11T19:56:00.814Z,11.30
2017-12-11T19:58:27.722Z,12.20
2017-12-11T20:00:54.207Z,6.70
2017-12-11T20:03:20.574Z,10.37
2017-12-11T20:05:46.901Z,10.10
2017-12-11T20:08:13.293Z,9.53
2017-12-11T20:10:39.858Z,10.77
2017-12-11T20:13:06.227Z,12.23
2017-12-11T20:15:32.569Z,9.77
2017-12-11T20:17:58.963Z,7.87
2017-12-11T20:20:25.343Z,12.13
2017-12-11T20:22:51.783Z,9.90
2017-12-11T20:25:18.134Z,9.27
2017-12-11T20:27:49.796Z,11.37
2017-12-11T20:30:16.934Z,10.83
2017-12-11T20:32:43.347Z,10.27
2017-12-11T20:35:09.709Z,19.50
2017-12-11T20:37:36.875Z,11.33
2017-12-11T20:40:03.334Z,14.70
2017-12-11T20:42:29.751Z,8.93
2017-12-11T20:44:56.148Z,8.00
2017-12-11T20:47:22.598Z,10.27
2017-12-11T20:49:49.791Z,11.43
2017-12-11T20:52:16.149Z,8.70
2017-12-11T20:54:42.527Z,8.17
2017-12-11T20:57:08.921Z,13.07
2017-12-11T20:59:35.386Z,10.10
2017-12-11T21:02:02.543Z,8.20
2017-12-11T21:04:28.979Z,12.93
2017-12-11T21:06:56.152Z,8.30
2017-12-11T21:09:22.474Z,10.07
2017-12-11T21:11:48.833Z,9.70
2017-12-11T21:14:15.549Z,9.63
2017-12-11T21:16:41.914Z,13.17
2017-12-11T21:19:08.220Z,10.80
2017-12-11T21:21:34.615Z,11.37
2017-12-11T21:24:01.018Z,11.93
2017-12-11T21:26:27.517Z,9.40
2017-12-11T21:28:54.751Z,13.37
2017-12-11T21:31:21.114Z,9.80
2017-12-11T21:33:47.527Z,10.70
2017-12-11T21:36:13.865Z,13.03
2017-12-11T21:38:41.068Z,12.00
2017-12-11T21:41:07.372Z,9.97
2017-12-11T21:43:33.669Z,10.20
2017-12-11T21:46:00.042Z,12.50
2017-12-11T21:48:26.376Z,10.53
2017-12-11T21:50:52.677Z,9.10
2017-12-11T21:53:20.094Z,8.43
2017-12-11T21:55:47.192Z,10.70
2017-12-11T21:58:13.523Z,11.97
2017-12-11T22:00:39.849Z,10.80
2017-12-11T22:03:06.178Z,11.10
2017-12-11T22:05:32.472Z,11.87
2017-12-11T22:07:59.571Z,10.90
2017-12-11T22:10:25.874Z,11.87
2017-12-11T22:12:52.244Z,9.93
2017-12-11T22:15:18.542Z,9.03
2017-12-11T22:17:44.905Z,12.13
2017-12-11T22:20:11.236Z,8.93
2017-12-11T22:22:37.610Z,11.70
2017-12-11T22:25:04.690Z,12.00
2017-12-11T22:27:31.018Z,8.17
2017-12-11T22:29:57.308Z,7.93
2017-12-11T22:32:24.412Z,8.43
2017-12-11T22:34:50.791Z,9.27
2017-12-11T22:37:17.821Z,8.40
2017-12-11T22:39:44.183Z,8.17
2017-12-11T22:42:11.258Z,8.40
2017-12-11T22:44:37.606Z,8.07
2017-12-11T22:47:03.937Z,7.60
2017-12-11T22:49:30.319Z,5.37
2017-12-11T22:51:57.394Z,5.60
2017-12-11T22:54:23.763Z,4.10
2017-12-11T22:56:50.073Z,4.17
2017-12-11T22:59:16.393Z,3.23
2017-12-11T23:01:42.727Z,5.70
2017-12-11T23:04:09.037Z,5.33
2017-12-11T23:06:36.097Z,6.20
2017-12-11T23:09:02.398Z,6.23
2017-12-11T23:11:29.478Z,4.33
2017-12-11T23:14:02.760Z,4.43
2017-12-11T23:16:29.826Z,3.67
2017-12-11T23:18:56.137Z,5.07
2017-12-11T23:21:23.180Z,4.73
2017-12-11T23:23:50.277Z,2.93
2017-12-11T23:26:16.609Z,3.00
2017-12-11T23:28:42.923Z,3.67
2017-12-11T23:31:09.319Z,2.80
2017-12-11T23:33:36.470Z,2.17
2017-12-11T23:36:03.538Z,4.93
2017-12-11T23:38:29.854Z,2.50
2017-12-11T23:40:56.898Z,3.40
2017-12-11T23:43:23.976Z,3.30
2017-12-11T23:45:50.304Z,2.10
2017-12-11T23:48:16.629Z,4.30
2017-12-11T23:50:43.035Z,5.70
2017-12-11T23:53:09.428Z,2.87
2017-12-11T23:55:35.752Z,4.43
2017-12-11T23:58:02.059Z,3.00
